sensor_id;sensor_type;location;lat;lon;timestamp;P1;durP1;ratioP1;P2;durP2;ratioP2
77571;SDS011;67214;47.454;18.966;2023-08-21T00:01:04;16.30;;;14.80;;
77571;SDS011;67214;47.454;18.966;2023-08-21T00:03:31;16.93;;;15.10;;
77571;SDS011;67214;47.454;18.966;2023-08-21T00:05:59;16.23;;;14.58;;
77571;SDS011;67214;47.454;18.966;2023-08-21T00:08:26;17.55;;;15.28;;
77571;SDS011;67214;47.454;18.966;2023-08-21T00:10:55;16.87;;;15.28;;
77571;SDS011;67214;47.454;18.966;2023-08-21T00:13:22;18.48;;;16.30;;
77571;SDS011;67214;47.454;18.966;2023-08-21T00:15:50;18.48;;;16.02;;
77571;SDS011;67214;47.454;18.966;2023-08-21T00:18:17;16.95;;;15.32;;
77571;SDS011;67214;47.454;18.966;2023-08-21T00:20:45;16.70;;;15.05;;
77571;SDS011;67214;47.454;18.966;2023-08-21T00:23:12;19.32;;;16.10;;
77571;SDS011;67214;47.454;18.966;2023-08-21T00:25:40;17.42;;;15.58;;
77571;SDS011;67214;47.454;18.966;2023-08-21T00:28:10;17.70;;;16.02;;
77571;SDS011;67214;47.454;18.966;2023-08-21T00:30:38;18.30;;;16.32;;
77571;SDS011;67214;47.454;18.966;2023-08-21T00:33:05;17.82;;;16.15;;
77571;SDS011;67214;47.454;18.966;2023-08-21T00:35:33;17.80;;;16.12;;
77571;SDS011;67214;47.454;18.966;2023-08-21T00:38:00;18.80;;;17.05;;
77571;SDS011;67214;47.454;18.966;2023-08-21T00:40:28;18.55;;;16.65;;
77571;SDS011;67214;47.454;18.966;2023-08-21T00:42:57;18.92;;;16.93;;
77571;SDS011;67214;47.454;18.966;2023-08-21T00:45:24;19.05;;;17.10;;
77571;SDS011;67214;47.454;18.966;2023-08-21T00:47:52;18.02;;;16.15;;
77571;SDS011;67214;47.454;18.966;2023-08-21T00:50:20;20.10;;;17.98;;
77571;SDS011;67214;47.454;18.966;2023-08-21T00:52:47;19.92;;;17.92;;
77571;SDS011;67214;47.454;18.966;2023-08-21T00:55:16;18.60;;;16.80;;
77571;SDS011;67214;47.454;18.966;2023-08-21T00:57:44;18.80;;;16.90;;
77571;SDS011;67214;47.454;18.966;2023-08-21T01:00:12;19.32;;;17.32;;
77571;SDS011;67214;47.454;18.966;2023-08-21T01:02:40;18.98;;;16.82;;
77571;SDS011;67214;47.454;18.966;2023-08-21T01:05:08;19.57;;;17.57;;
77571;SDS011;67214;47.454;18.966;2023-08-21T01:07:36;19.52;;;17.17;;
77571;SDS011;67214;47.454;18.966;2023-08-21T01:10:09;19.05;;;17.17;;
77571;SDS011;67214;47.454;18.966;2023-08-21T01:12:50;18.48;;;16.65;;
77571;SDS011;67214;47.454;18.966;2023-08-21T01:15:19;19.98;;;17.75;;
77571;SDS011;67214;47.454;18.966;2023-08-21T01:17:47;19.17;;;17.25;;
77571;SDS011;67214;47.454;18.966;2023-08-21T01:20:15;18.80;;;17.00;;
77571;SDS011;67214;47.454;18.966;2023-08-21T01:22:44;19.27;;;17.57;;
77571;SDS011;67214;47.454;18.966;2023-08-21T01:25:15;19.40;;;17.35;;
77571;SDS011;67214;47.454;18.966;2023-08-21T01:27:47;19.92;;;17.92;;
77571;SDS011;67214;47.454;18.966;2023-08-21T01:30:17;20.55;;;17.42;;
77571;SDS011;67214;47.454;18.966;2023-08-21T01:35:20;18.95;;;17.02;;
77571;SDS011;67214;47.454;18.966;2023-08-21T01:37:49;18.82;;;17.02;;
77571;SDS011;67214;47.454;18.966;2023-08-21T01:40:23;20.02;;;17.87;;
77571;SDS011;67214;47.454;18.966;2023-08-21T01:42:48;19.52;;;17.23;;
77571;SDS011;67214;47.454;18.966;2023-08-21T01:45:15;19.15;;;17.25;;
77571;SDS011;67214;47.454;18.966;2023-08-21T01:47:43;19.80;;;17.67;;
77571;SDS011;67214;47.454;18.966;2023-08-21T01:50:10;19.80;;;17.80;;
77571;SDS011;67214;47.454;18.966;2023-08-21T01:52:38;19.35;;;17.40;;
77571;SDS011;67214;47.454;18.966;2023-08-21T01:55:05;20.77;;;18.65;;
77571;SDS011;67214;47.454;18.966;2023-08-21T01:57:36;19.55;;;17.75;;
77571;SDS011;67214;47.454;18.966;2023-08-21T02:00:04;20.45;;;18.32;;
77571;SDS011;67214;47.454;18.966;2023-08-21T02:02:33;21.85;;;19.37;;
77571;SDS011;67214;47.454;18.966;2023-08-21T02:05:01;20.52;;;18.55;;
77571;SDS011;67214;47.454;18.966;2023-08-21T02:07:29;20.45;;;18.40;;
77571;SDS011;67214;47.454;18.966;2023-08-21T02:09:56;19.00;;;17.10;;
77571;SDS011;67214;47.454;18.966;2023-08-21T02:12:24;18.98;;;17.05;;
77571;SDS011;67214;47.454;18.966;2023-08-21T02:14:52;19.05;;;17.25;;
77571;SDS011;67214;47.454;18.966;2023-08-21T02:17:19;18.52;;;16.62;;
77571;SDS011;67214;47.454;18.966;2023-08-21T02:19:47;19.67;;;17.57;;
77571;SDS011;67214;47.454;18.966;2023-08-21T02:22:14;18.42;;;16.15;;
77571;SDS011;67214;47.454;18.966;2023-08-21T02:24:41;19.20;;;17.20;;
77571;SDS011;67214;47.454;18.966;2023-08-21T02:27:09;20.57;;;16.25;;
77571;SDS011;67214;47.454;18.966;2023-08-21T02:29:36;19.25;;;17.25;;
77571;SDS011;67214;47.454;18.966;2023-08-21T02:32:04;19.90;;;17.80;;
77571;SDS011;67214;47.454;18.966;2023-08-21T02:34:31;19.55;;;17.57;;
77571;SDS011;67214;47.454;18.966;2023-08-21T02:36:59;18.42;;;16.57;;
77571;SDS011;67214;47.454;18.966;2023-08-21T02:39:27;18.80;;;16.80;;
77571;SDS011;67214;47.454;18.966;2023-08-21T02:41:55;19.37;;;17.40;;
77571;SDS011;67214;47.454;18.966;2023-08-21T02:44:22;19.57;;;17.57;;
77571;SDS011;67214;47.454;18.966;2023-08-21T02:46:49;21.30;;;17.35;;
77571;SDS011;67214;47.454;18.966;2023-08-21T02:49:17;18.70;;;16.90;;
77571;SDS011;67214;47.454;18.966;2023-08-21T02:51:44;21.73;;;17.40;;
77571;SDS011;67214;47.454;18.966;2023-08-21T02:54:12;20.32;;;16.62;;
77571;SDS011;67214;47.454;18.966;2023-08-21T02:56:39;19.65;;;17.60;;
77571;SDS011;67214;47.454;18.966;2023-08-21T02:59:06;17.42;;;15.60;;
77571;SDS011;67214;47.454;18.966;2023-08-21T03:01:34;18.02;;;16.17;;
77571;SDS011;67214;47.454;18.966;2023-08-21T03:04:01;21.17;;;16.42;;
77571;SDS011;67214;47.454;18.966;2023-08-21T03:06:29;19.00;;;15.88;;
77571;SDS011;67214;47.454;18.966;2023-08-21T03:08:56;19.75;;;16.40;;
77571;SDS011;67214;47.454;18.966;2023-08-21T03:11:24;17.55;;;15.83;;
77571;SDS011;67214;47.454;18.966;2023-08-21T03:13:51;18.00;;;16.25;;
77571;SDS011;67214;47.454;18.966;2023-08-21T03:16:18;17.62;;;15.93;;
77571;SDS011;67214;47.454;18.966;2023-08-21T03:18:58;17.15;;;15.30;;
77571;SDS011;67214;47.454;18.966;2023-08-21T03:21:27;17.87;;;16.05;;
77571;SDS011;67214;47.454;18.966;2023-08-21T03:23:56;19.23;;;17.23;;
77571;SDS011;67214;47.454;18.966;2023-08-21T03:26:25;22.73;;;17.65;;
77571;SDS011;67214;47.454;18.966;2023-08-21T03:28:52;18.60;;;16.60;;
77571;SDS011;67214;47.454;18.966;2023-08-21T03:31:20;19.60;;;17.50;;
77571;SDS011;67214;47.454;18.966;2023-08-21T03:33:47;19.87;;;16.65;;
77571;SDS011;67214;47.454;18.966;2023-08-21T03:36:14;17.65;;;15.95;;
77571;SDS011;67214;47.454;18.966;2023-08-21T03:38:42;17.45;;;15.72;;
77571;SDS011;67214;47.454;18.966;2023-08-21T03:41:09;16.90;;;15.10;;
77571;SDS011;67214;47.454;18.966;2023-08-21T03:43:37;17.55;;;15.75;;
77571;SDS011;67214;47.454;18.966;2023-08-21T03:46:05;18.73;;;15.83;;
77571;SDS011;67214;47.454;18.966;2023-08-21T03:48:32;17.15;;;15.28;;
77571;SDS011;67214;47.454;18.966;2023-08-21T03:50:59;17.00;;;15.13;;
77571;SDS011;67214;47.454;18.966;2023-08-21T03:53:27;18.30;;;16.35;;
77571;SDS011;67214;47.454;18.966;2023-08-21T03:55:54;17.60;;;15.98;;
77571;SDS011;67214;47.454;18.966;2023-08-21T03:58:22;17.95;;;16.07;;
77571;SDS011;67214;47.454;18.966;2023-08-21T04:00:51;19.40;;;17.12;;
77571;SDS011;67214;47.454;18.966;2023-08-21T04:03:19;18.67;;;16.50;;
77571;SDS011;67214;47.454;18.966;2023-08-21T04:05:47;17.42;;;15.72;;
77571;SDS011;67214;47.454;18.966;2023-08-21T04:08:14;18.77;;;16.62;;
77571;SDS011;67214;47.454;18.966;2023-08-21T04:10:42;20.32;;;15.80;;
77571;SDS011;67214;47.454;18.966;2023-08-21T04:13:09;19.27;;;17.27;;
77571;SDS011;67214;47.454;18.966;2023-08-21T04:15:37;19.92;;;16.57;;
77571;SDS011;67214;47.454;18.966;2023-08-21T04:18:04;19.42;;;17.42;;
77571;SDS011;67214;47.454;18.966;2023-08-21T04:20:32;20.88;;;17.30;;
77571;SDS011;67214;47.454;18.966;2023-08-21T04:23:00;19.95;;;18.00;;
77571;SDS011;67214;47.454;18.966;2023-08-21T04:25:27;19.62;;;16.48;;
77571;SDS011;67214;47.454;18.966;2023-08-21T04:27:54;19.80;;;17.42;;
77571;SDS011;67214;47.454;18.966;2023-08-21T04:30:22;18.73;;;16.82;;
77571;SDS011;67214;47.454;18.966;2023-08-21T04:32:49;19.12;;;17.12;;
77571;SDS011;67214;47.454;18.966;2023-08-21T04:35:17;18.85;;;17.00;;
77571;SDS011;67214;47.454;18.966;2023-08-21T04:37:46;19.82;;;17.75;;
77571;SDS011;67214;47.454;18.966;2023-08-21T04:40:14;18.95;;;16.75;;
77571;SDS011;67214;47.454;18.966;2023-08-21T04:42:43;19.40;;;17.05;;
77571;SDS011;67214;47.454;18.966;2023-08-21T04:45:10;18.65;;;16.75;;
77571;SDS011;67214;47.454;18.966;2023-08-21T04:47:38;18.25;;;16.40;;
77571;SDS011;67214;47.454;18.966;2023-08-21T04:50:05;19.85;;;17.17;;
77571;SDS011;67214;47.454;18.966;2023-08-21T04:52:33;19.17;;;16.25;;
77571;SDS011;67214;47.454;18.966;2023-08-21T04:55:00;17.75;;;16.07;;
77571;SDS011;67214;47.454;18.966;2023-08-21T04:57:28;19.90;;;17.52;;
77571;SDS011;67214;47.454;18.966;2023-08-21T04:59:55;18.52;;;16.60;;
77571;SDS011;67214;47.454;18.966;2023-08-21T05:02:22;20.02;;;17.35;;
77571;SDS011;67214;47.454;18.966;2023-08-21T05:04:50;19.12;;;16.35;;
77571;SDS011;67214;47.454;18.966;2023-08-21T05:07:17;16.90;;;15.10;;
77571;SDS011;67214;47.454;18.966;2023-08-21T05:09:45;17.73;;;15.95;;
77571;SDS011;67214;47.454;18.966;2023-08-21T05:12:12;19.37;;;16.35;;
77571;SDS011;67214;47.454;18.966;2023-08-21T05:14:40;18.42;;;16.62;;
77571;SDS011;67214;47.454;18.966;2023-08-21T05:17:07;19.25;;;16.82;;
77571;SDS011;67214;47.454;18.966;2023-08-21T05:19:34;21.02;;;16.27;;
77571;SDS011;67214;47.454;18.966;2023-08-21T05:22:02;20.25;;;16.73;;
77571;SDS011;67214;47.454;18.966;2023-08-21T05:24:30;17.57;;;15.78;;
77571;SDS011;67214;47.454;18.966;2023-08-21T05:26:58;16.60;;;15.00;;
77571;SDS011;67214;47.454;18.966;2023-08-21T05:29:25;17.45;;;15.68;;
77571;SDS011;67214;47.454;18.966;2023-08-21T05:31:53;19.27;;;17.37;;
77571;SDS011;67214;47.454;18.966;2023-08-21T05:34:20;17.98;;;16.07;;
77571;SDS011;67214;47.454;18.966;2023-08-21T05:36:48;18.12;;;16.30;;
77571;SDS011;67214;47.454;18.966;2023-08-21T05:39:15;19.20;;;17.15;;
77571;SDS011;67214;47.454;18.966;2023-08-21T05:41:44;19.65;;;15.93;;
77571;SDS011;67214;47.454;18.966;2023-08-21T05:44:12;20.20;;;16.37;;
77571;SDS011;67214;47.454;18.966;2023-08-21T05:46:39;18.30;;;16.48;;
77571;SDS011;67214;47.454;18.966;2023-08-21T05:49:07;21.93;;;15.72;;
77571;SDS011;67214;47.454;18.966;2023-08-21T05:51:34;20.25;;;15.53;;
77571;SDS011;67214;47.454;18.966;2023-08-21T05:54:02;18.12;;;16.32;;
77571;SDS011;67214;47.454;18.966;2023-08-21T05:56:29;17.30;;;15.50;;
77571;SDS011;67214;47.454;18.966;2023-08-21T05:58:57;19.70;;;15.72;;
77571;SDS011;67214;47.454;18.966;2023-08-21T06:01:24;19.80;;;17.37;;
77571;SDS011;67214;47.454;18.966;2023-08-21T06:03:52;18.00;;;14.13;;
77571;SDS011;67214;47.454;18.966;2023-08-21T06:06:20;16.27;;;14.60;;
77571;SDS011;67214;47.454;18.966;2023-08-21T06:08:47;17.57;;;15.68;;
77571;SDS011;67214;47.454;18.966;2023-08-21T06:11:14;16.82;;;15.23;;
77571;SDS011;67214;47.454;18.966;2023-08-21T06:13:42;17.00;;;15.00;;
77571;SDS011;67214;47.454;18.966;2023-08-21T06:16:09;16.30;;;14.80;;
77571;SDS011;67214;47.454;18.966;2023-08-21T06:18:37;16.75;;;15.05;;
77571;SDS011;67214;47.454;18.966;2023-08-21T06:21:04;17.20;;;15.30;;
77571;SDS011;67214;47.454;18.966;2023-08-21T06:23:32;25.37;;;16.90;;
77571;SDS011;67214;47.454;18.966;2023-08-21T06:25:59;17.67;;;15.05;;
77571;SDS011;67214;47.454;18.966;2023-08-21T06:28:26;35.73;;;17.73;;
77571;SDS011;67214;47.454;18.966;2023-08-21T06:30:57;25.10;;;15.93;;
77571;SDS011;67214;47.454;18.966;2023-08-21T06:33:24;17.77;;;13.95;;
77571;SDS011;67214;47.454;18.966;2023-08-21T06:35:52;18.25;;;14.50;;
77571;SDS011;67214;47.454;18.966;2023-08-21T06:38:19;44.08;;;17.87;;
77571;SDS011;67214;47.454;18.966;2023-08-21T06:40:47;18.45;;;15.28;;
77571;SDS011;67214;47.454;18.966;2023-08-21T06:43:14;18.07;;;14.13;;
77571;SDS011;67214;47.454;18.966;2023-08-21T06:45:42;17.15;;;14.30;;
77571;SDS011;67214;47.454;18.966;2023-08-21T06:48:09;15.15;;;13.32;;
77571;SDS011;67214;47.454;18.966;2023-08-21T06:50:37;16.50;;;14.80;;
77571;SDS011;67214;47.454;18.966;2023-08-21T06:53:04;15.75;;;14.13;;
77571;SDS011;67214;47.454;18.966;2023-08-21T06:55:32;16.40;;;13.95;;
77571;SDS011;67214;47.454;18.966;2023-08-21T06:57:59;16.07;;;14.43;;
77571;SDS011;67214;47.454;18.966;2023-08-21T07:00:27;17.73;;;14.45;;
77571;SDS011;67214;47.454;18.966;2023-08-21T07:02:54;15.63;;;14.03;;
77571;SDS011;67214;47.454;18.966;2023-08-21T07:05:21;15.58;;;14.15;;
77571;SDS011;67214;47.454;18.966;2023-08-21T07:07:49;16.70;;;13.22;;
77571;SDS011;67214;47.454;18.966;2023-08-21T07:10:16;15.13;;;13.35;;
77571;SDS011;67214;47.454;18.966;2023-08-21T07:12:44;15.10;;;13.60;;
77571;SDS011;67214;47.454;18.966;2023-08-21T07:15:11;14.50;;;13.05;;
77571;SDS011;67214;47.454;18.966;2023-08-21T07:17:39;14.65;;;13.32;;
77571;SDS011;67214;47.454;18.966;2023-08-21T07:20:06;14.50;;;12.78;;
77571;SDS011;67214;47.454;18.966;2023-08-21T07:22:34;14.35;;;12.82;;
77571;SDS011;67214;47.454;18.966;2023-08-21T07:25:02;16.37;;;13.15;;
77571;SDS011;67214;47.454;18.966;2023-08-21T07:27:30;15.48;;;12.88;;
77571;SDS011;67214;47.454;18.966;2023-08-21T07:29:58;13.50;;;12.13;;
77571;SDS011;67214;47.454;18.966;2023-08-21T07:32:25;14.68;;;13.20;;
77571;SDS011;67214;47.454;18.966;2023-08-21T07:34:53;13.15;;;11.90;;
77571;SDS011;67214;47.454;18.966;2023-08-21T07:37:20;13.32;;;12.15;;
77571;SDS011;67214;47.454;18.966;2023-08-21T07:39:48;12.95;;;11.85;;
77571;SDS011;67214;47.454;18.966;2023-08-21T07:42:16;15.08;;;12.53;;
77571;SDS011;67214;47.454;18.966;2023-08-21T07:44:44;13.70;;;12.50;;
77571;SDS011;67214;47.454;18.966;2023-08-21T07:47:11;12.70;;;11.40;;
77571;SDS011;67214;47.454;18.966;2023-08-21T07:49:39;13.50;;;11.93;;
77571;SDS011;67214;47.454;18.966;2023-08-21T07:52:06;82.78;;;20.72;;
77571;SDS011;67214;47.454;18.966;2023-08-21T07:54:34;13.62;;;12.20;;
77571;SDS011;67214;47.454;18.966;2023-08-21T07:57:01;13.22;;;12.03;;
77571;SDS011;67214;47.454;18.966;2023-08-21T07:59:29;12.85;;;11.50;;
77571;SDS011;67214;47.454;18.966;2023-08-21T08:01:57;12.95;;;11.85;;
77571;SDS011;67214;47.454;18.966;2023-08-21T08:04:26;16.70;;;12.60;;
77571;SDS011;67214;47.454;18.966;2023-08-21T08:06:53;36.38;;;16.12;;
77571;SDS011;67214;47.454;18.966;2023-08-21T08:09:21;13.90;;;12.55;;
77571;SDS011;67214;47.454;18.966;2023-08-21T08:11:48;13.43;;;11.53;;
77571;SDS011;67214;47.454;18.966;2023-08-21T08:14:16;13.95;;;12.65;;
77571;SDS011;67214;47.454;18.966;2023-08-21T08:16:43;14.07;;;12.20;;
77571;SDS011;67214;47.454;18.966;2023-08-21T08:19:11;14.55;;;12.47;;
77571;SDS011;67214;47.454;18.966;2023-08-21T08:21:38;14.40;;;12.63;;
77571;SDS011;67214;47.454;18.966;2023-08-21T08:24:06;14.78;;;12.73;;
77571;SDS011;67214;47.454;18.966;2023-08-21T08:26:33;14.73;;;11.50;;
77571;SDS011;67214;47.454;18.966;2023-08-21T08:29:01;12.20;;;11.10;;
77571;SDS011;67214;47.454;18.966;2023-08-21T08:31:29;12.40;;;10.98;;
77571;SDS011;67214;47.454;18.966;2023-08-21T08:33:56;12.58;;;11.45;;
77571;SDS011;67214;47.454;18.966;2023-08-21T08:36:24;13.68;;;12.23;;
77571;SDS011;67214;47.454;18.966;2023-08-21T08:38:51;14.68;;;11.68;;
77571;SDS011;67214;47.454;18.966;2023-08-21T08:41:25;12.78;;;11.55;;
77571;SDS011;67214;47.454;18.966;2023-08-21T08:44:02;13.03;;;11.73;;
77571;SDS011;67214;47.454;18.966;2023-08-21T08:46:31;12.05;;;10.98;;
77571;SDS011;67214;47.454;18.966;2023-08-21T08:48:58;14.50;;;13.00;;
77571;SDS011;67214;47.454;18.966;2023-08-21T08:51:28;12.98;;;11.68;;
77571;SDS011;67214;47.454;18.966;2023-08-21T08:53:57;12.95;;;11.63;;
77571;SDS011;67214;47.454;18.966;2023-08-21T08:56:25;12.75;;;11.43;;
77571;SDS011;67214;47.454;18.966;2023-08-21T08:58:52;13.78;;;12.35;;
77571;SDS011;67214;47.454;18.966;2023-08-21T09:01:20;14.70;;;12.35;;
77571;SDS011;67214;47.454;18.966;2023-08-21T09:03:48;11.90;;;10.90;;
77571;SDS011;67214;47.454;18.966;2023-08-21T09:06:15;12.20;;;11.00;;
77571;SDS011;67214;47.454;18.966;2023-08-21T09:08:55;12.30;;;11.15;;
77571;SDS011;67214;47.454;18.966;2023-08-21T09:11:23;12.28;;;11.15;;
77571;SDS011;67214;47.454;18.966;2023-08-21T09:13:52;12.50;;;11.28;;
77571;SDS011;67214;47.454;18.966;2023-08-21T09:16:21;12.60;;;11.35;;
77571;SDS011;67214;47.454;18.966;2023-08-21T09:18:59;13.40;;;11.90;;
77571;SDS011;67214;47.454;18.966;2023-08-21T09:21:24;14.07;;;11.90;;
77571;SDS011;67214;47.454;18.966;2023-08-21T09:24:01;13.13;;;11.70;;
77571;SDS011;67214;47.454;18.966;2023-08-21T09:26:26;13.72;;;12.30;;
77571;SDS011;67214;47.454;18.966;2023-08-21T09:28:59;13.00;;;11.33;;
77571;SDS011;67214;47.454;18.966;2023-08-21T09:31:32;13.72;;;12.20;;
77571;SDS011;67214;47.454;18.966;2023-08-21T09:34:02;51.40;;;17.02;;
77571;SDS011;67214;47.454;18.966;2023-08-21T09:36:31;14.40;;;12.25;;
77571;SDS011;67214;47.454;18.966;2023-08-21T09:39:00;12.07;;;11.08;;
77571;SDS011;67214;47.454;18.966;2023-08-21T09:41:29;13.20;;;12.00;;
77571;SDS011;67214;47.454;18.966;2023-08-21T09:43:59;12.90;;;11.68;;
77571;SDS011;67214;47.454;18.966;2023-08-21T09:46:29;11.90;;;10.68;;
77571;SDS011;67214;47.454;18.966;2023-08-21T09:48:57;12.45;;;11.15;;
77571;SDS011;67214;47.454;18.966;2023-08-21T09:51:25;12.00;;;10.75;;
77571;SDS011;67214;47.454;18.966;2023-08-21T09:53:53;14.20;;;11.90;;
77571;SDS011;67214;47.454;18.966;2023-08-21T09:56:22;14.10;;;12.60;;
77571;SDS011;67214;47.454;18.966;2023-08-21T09:58:50;12.55;;;11.38;;
77571;SDS011;67214;47.454;18.966;2023-08-21T10:01:18;13.50;;;12.23;;
77571;SDS011;67214;47.454;18.966;2023-08-21T10:03:48;10.75;;;9.73;;
77571;SDS011;67214;47.454;18.966;2023-08-21T10:06:17;11.48;;;10.32;;
77571;SDS011;67214;47.454;18.966;2023-08-21T10:08:45;10.68;;;9.75;;
77571;SDS011;67214;47.454;18.966;2023-08-21T10:11:15;11.10;;;10.10;;
77571;SDS011;67214;47.454;18.966;2023-08-21T10:13:46;11.10;;;10.00;;
77571;SDS011;67214;47.454;18.966;2023-08-21T10:16:17;10.58;;;9.58;;
77571;SDS011;67214;47.454;18.966;2023-08-21T10:18:47;9.53;;;8.63;;
77571;SDS011;67214;47.454;18.966;2023-08-21T10:21:18;10.30;;;9.28;;
77571;SDS011;67214;47.454;18.966;2023-08-21T10:23:47;10.28;;;9.38;;
77571;SDS011;67214;47.454;18.966;2023-08-21T10:26:18;10.28;;;9.28;;
77571;SDS011;67214;47.454;18.966;2023-08-21T10:28:53;10.80;;;9.80;;
77571;SDS011;67214;47.454;18.966;2023-08-21T10:31:27;12.88;;;11.00;;
77571;SDS011;67214;47.454;18.966;2023-08-21T10:33:56;11.48;;;10.38;;
77571;SDS011;67214;47.454;18.966;2023-08-21T10:36:38;11.25;;;10.25;;
77571;SDS011;67214;47.454;18.966;2023-08-21T10:39:17;13.90;;;10.78;;
77571;SDS011;67214;47.454;18.966;2023-08-21T10:41:56;11.05;;;10.10;;
77571;SDS011;67214;47.454;18.966;2023-08-21T10:44:38;11.85;;;10.63;;
77571;SDS011;67214;47.454;18.966;2023-08-21T10:47:18;11.75;;;10.60;;
77571;SDS011;67214;47.454;18.966;2023-08-21T10:49:56;11.63;;;10.50;;
77571;SDS011;67214;47.454;18.966;2023-08-21T10:54:56;11.70;;;10.45;;
77571;SDS011;67214;47.454;18.966;2023-08-21T10:57:25;11.45;;;10.00;;
77571;SDS011;67214;47.454;18.966;2023-08-21T10:59:54;11.20;;;10.18;;
77571;SDS011;67214;47.454;18.966;2023-08-21T11:02:31;11.75;;;10.80;;
77571;SDS011;67214;47.454;18.966;2023-08-21T11:04:55;11.08;;;10.10;;
77571;SDS011;67214;47.454;18.966;2023-08-21T11:07:23;12.90;;;10.50;;
77571;SDS011;67214;47.454;18.966;2023-08-21T11:09:51;12.28;;;11.10;;
77571;SDS011;67214;47.454;18.966;2023-08-21T11:12:20;11.38;;;10.38;;
77571;SDS011;67214;47.454;18.966;2023-08-21T11:14:50;11.25;;;10.05;;
77571;SDS011;67214;47.454;18.966;2023-08-21T11:17:17;11.78;;;10.75;;
77571;SDS011;67214;47.454;18.966;2023-08-21T11:19:45;11.43;;;10.38;;
77571;SDS011;67214;47.454;18.966;2023-08-21T11:22:14;10.98;;;10.08;;
77571;SDS011;67214;47.454;18.966;2023-08-21T11:24:45;10.60;;;9.45;;
77571;SDS011;67214;47.454;18.966;2023-08-21T11:27:15;11.43;;;10.53;;
77571;SDS011;67214;47.454;18.966;2023-08-21T11:29:45;11.03;;;9.93;;
77571;SDS011;67214;47.454;18.966;2023-08-21T11:32:17;10.10;;;9.20;;
77571;SDS011;67214;47.454;18.966;2023-08-21T11:34:53;10.90;;;9.80;;
77571;SDS011;67214;47.454;18.966;2023-08-21T11:37:18;11.40;;;10.40;;
77571;SDS011;67214;47.454;18.966;2023-08-21T11:39:50;11.90;;;10.75;;
77571;SDS011;67214;47.454;18.966;2023-08-21T11:42:18;11.10;;;10.00;;
77571;SDS011;67214;47.454;18.966;2023-08-21T11:44:49;10.15;;;9.28;;
77571;SDS011;67214;47.454;18.966;2023-08-21T11:47:19;20.92;;;11.40;;
77571;SDS011;67214;47.454;18.966;2023-08-21T11:49:48;10.88;;;9.98;;
77571;SDS011;67214;47.454;18.966;2023-08-21T11:52:20;10.58;;;9.58;;
77571;SDS011;67214;47.454;18.966;2023-08-21T11:57:18;10.43;;;9.53;;
77571;SDS011;67214;47.454;18.966;2023-08-21T11:59:50;10.38;;;9.48;;
77571;SDS011;67214;47.454;18.966;2023-08-21T12:02:21;10.90;;;9.60;;
77571;SDS011;67214;47.454;18.966;2023-08-21T12:04:58;10.95;;;10.03;;
77571;SDS011;67214;47.454;18.966;2023-08-21T12:07:33;11.55;;;10.55;;
77571;SDS011;67214;47.454;18.966;2023-08-21T12:10:01;11.95;;;10.25;;
77571;SDS011;67214;47.454;18.966;2023-08-21T12:12:28;11.30;;;10.08;;
77571;SDS011;67214;47.454;18.966;2023-08-21T12:14:56;11.63;;;10.53;;
77571;SDS011;67214;47.454;18.966;2023-08-21T12:17:23;10.35;;;9.35;;
77571;SDS011;67214;47.454;18.966;2023-08-21T12:19:51;10.13;;;9.13;;
77571;SDS011;67214;47.454;18.966;2023-08-21T12:22:18;10.68;;;9.60;;
77571;SDS011;67214;47.454;18.966;2023-08-21T12:24:45;10.20;;;9.18;;
77571;SDS011;67214;47.454;18.966;2023-08-21T12:27:13;12.33;;;9.85;;
77571;SDS011;67214;47.454;18.966;2023-08-21T12:29:41;10.13;;;9.33;;
77571;SDS011;67214;47.454;18.966;2023-08-21T12:32:09;10.88;;;9.98;;
77571;SDS011;67214;47.454;18.966;2023-08-21T12:34:36;10.43;;;9.45;;
77571;SDS011;67214;47.454;18.966;2023-08-21T12:37:04;10.72;;;9.48;;
77571;SDS011;67214;47.454;18.966;2023-08-21T12:39:31;10.15;;;9.35;;
77571;SDS011;67214;47.454;18.966;2023-08-21T12:41:59;10.93;;;9.83;;
77571;SDS011;67214;47.454;18.966;2023-08-21T12:44:26;10.40;;;9.40;;
77571;SDS011;67214;47.454;18.966;2023-08-21T12:46:54;10.80;;;9.88;;
77571;SDS011;67214;47.454;18.966;2023-08-21T12:49:21;9.73;;;8.73;;
77571;SDS011;67214;47.454;18.966;2023-08-21T12:51:49;10.32;;;9.10;;
77571;SDS011;67214;47.454;18.966;2023-08-21T12:54:16;11.35;;;9.38;;
77571;SDS011;67214;47.454;18.966;2023-08-21T12:56:44;9.53;;;8.73;;
77571;SDS011;67214;47.454;18.966;2023-08-21T12:59:12;10.23;;;9.38;;
77571;SDS011;67214;47.454;18.966;2023-08-21T13:01:39;10.65;;;9.13;;
77571;SDS011;67214;47.454;18.966;2023-08-21T13:04:07;9.95;;;9.05;;
77571;SDS011;67214;47.454;18.966;2023-08-21T13:06:35;10.82;;;9.75;;
77571;SDS011;67214;47.454;18.966;2023-08-21T13:09:02;10.90;;;9.83;;
77571;SDS011;67214;47.454;18.966;2023-08-21T13:11:31;10.30;;;9.33;;
77571;SDS011;67214;47.454;18.966;2023-08-21T13:13:58;10.38;;;9.38;;
77571;SDS011;67214;47.454;18.966;2023-08-21T13:16:26;10.55;;;9.43;;
77571;SDS011;67214;47.454;18.966;2023-08-21T13:18:53;10.58;;;9.53;;
77571;SDS011;67214;47.454;18.966;2023-08-21T13:21:20;11.28;;;9.83;;
77571;SDS011;67214;47.454;18.966;2023-08-21T13:23:48;10.38;;;9.38;;
77571;SDS011;67214;47.454;18.966;2023-08-21T13:26:15;10.88;;;9.75;;
77571;SDS011;67214;47.454;18.966;2023-08-21T13:28:43;10.35;;;9.35;;
77571;SDS011;67214;47.454;18.966;2023-08-21T13:31:10;10.72;;;9.83;;
77571;SDS011;67214;47.454;18.966;2023-08-21T13:33:44;10.70;;;9.55;;
77571;SDS011;67214;47.454;18.966;2023-08-21T13:36:12;11.85;;;9.48;;
77571;SDS011;67214;47.454;18.966;2023-08-21T13:38:41;12.63;;;10.53;;
77571;SDS011;67214;47.454;18.966;2023-08-21T13:41:08;11.15;;;10.15;;
77571;SDS011;67214;47.454;18.966;2023-08-21T13:43:36;12.40;;;10.38;;
77571;SDS011;67214;47.454;18.966;2023-08-21T13:46:04;11.28;;;10.18;;
77571;SDS011;67214;47.454;18.966;2023-08-21T13:48:33;11.28;;;10.38;;
77571;SDS011;67214;47.454;18.966;2023-08-21T13:51:00;12.70;;;11.28;;
77571;SDS011;67214;47.454;18.966;2023-08-21T13:53:28;10.68;;;9.85;;
77571;SDS011;67214;47.454;18.966;2023-08-21T13:55:55;11.10;;;10.10;;
77571;SDS011;67214;47.454;18.966;2023-08-21T13:58:22;12.70;;;10.80;;
77571;SDS011;67214;47.454;18.966;2023-08-21T14:00:50;11.20;;;10.20;;
77571;SDS011;67214;47.454;18.966;2023-08-21T14:03:17;11.03;;;10.05;;
77571;SDS011;67214;47.454;18.966;2023-08-21T14:05:45;10.85;;;9.93;;
77571;SDS011;67214;47.454;18.966;2023-08-21T14:08:12;11.25;;;10.20;;
77571;SDS011;67214;47.454;18.966;2023-08-21T14:10:40;10.30;;;9.40;;
77571;SDS011;67214;47.454;18.966;2023-08-21T14:13:07;11.93;;;10.40;;
77571;SDS011;67214;47.454;18.966;2023-08-21T14:15:35;10.10;;;9.23;;
77571;SDS011;67214;47.454;18.966;2023-08-21T14:18:02;11.15;;;10.13;;
77571;SDS011;67214;47.454;18.966;2023-08-21T14:20:30;11.05;;;9.98;;
77571;SDS011;67214;47.454;18.966;2023-08-21T14:22:58;10.10;;;9.30;;
77571;SDS011;67214;47.454;18.966;2023-08-21T14:25:25;11.00;;;10.00;;